Time;durP1;ratioP1;P1;durP2;ratioP2;P2;SDS_P1;SDS_P2;PMS_P1;PMS_P2;Temp;Humidity;BMP_temperature;BMP_pressure;BME280_temperature;BME280_humidity;BME280_pressure;Samples;Min_cycle;Max_cycle;Signal;HPM_P1;HPM_P2
2022/08/18 00:02:22;;;;;;;46.92;40.92;;;;;;;18.57;100.00;101163.69;5015174;28;20109;-59
2022/08/18 00:04:48;;;;;;;47.10;41.35;;;;;;;18.47;100.00;101162.22;5015089;28;20429;-60
2022/08/18 00:07:21;;;;;;;46.88;41.72;;;;;;;18.38;100.00;101142.72;5015330;28;20033;-60
2022/08/18 00:09:46;;;;;;;45.42;38.50;;;;;;;18.45;100.00;101150.53;5014870;28;20034;-59
2022/08/18 00:12:32;;;;;;;46.65;41.28;;;;;;;18.37;100.00;101137.50;5014909;28;20029;-59
2022/08/18 00:15:04;;;;;;;47.55;40.83;;;;;;;18.38;100.00;101159.53;5015251;28;20049;-59
2022/08/18 00:17:30;;;;;;;47.30;40.70;;;;;;;18.38;100.00;101161.53;5014823;28;20137;-59
2022/08/18 00:19:55;;;;;;;46.75;41.55;;;;;;;18.35;100.00;101162.22;5014777;28;20493;-60
2022/08/18 00:22:21;;;;;;;49.58;43.10;;;;;;;18.35;100.00;101159.44;5014512;28;20062;-59
2022/08/18 00:24:49;;;;;;;50.75;43.80;;;;;;;18.29;100.00;101158.03;5014503;28;20038;-59
2022/08/18 00:27:21;;;;;;;48.38;41.53;;;;;;;18.32;100.00;101158.16;5014834;28;20040;-59
2022/08/18 00:29:47;;;;;;;47.42;40.20;;;;;;;18.33;100.00;101158.94;5014751;28;20065;-61
2022/08/18 00:32:32;;;;;;;48.35;43.03;;;;;;;18.33;100.00;101162.59;5014329;28;20101;-60
2022/08/18 00:35:12;;;;;;;48.28;41.90;;;;;;;18.42;100.00;101170.84;5014279;28;20036;-59
2022/08/18 00:37:39;;;;;;;46.95;41.47;;;;;;;18.48;100.00;101179.81;5014256;28;20556;-59
2022/08/18 00:40:07;;;;;;;48.00;41.15;;;;;;;18.44;100.00;101170.50;5014522;28;20041;-59
2022/08/18 00:42:32;;;;;;;45.45;40.22;;;;;;;18.46;100.00;101170.97;5014129;28;20048;-59
2022/08/18 00:45:01;;;;;;;46.95;41.70;;;;;;;18.42;100.00;101187.66;5013113;28;20129;-59
2022/08/18 00:47:28;;;;;;;45.95;40.95;;;;;;;18.40;100.00;101193.63;5013793;28;20138;-60
2022/08/18 00:49:54;;;;;;;46.97;41.88;;;;;;;18.28;100.00;101199.22;5014311;28;20046;-60
2022/08/18 00:52:21;;;;;;;45.83;40.80;;;;;;;18.26;100.00;101198.78;5014226;28;20056;-59
2022/08/18 00:54:47;;;;;;;47.08;39.60;;;;;;;18.26;100.00;101195.13;5014062;28;20144;-60
2022/08/18 00:57:17;;;;;;;44.53;38.25;;;;;;;18.22;100.00;101186.63;5013874;28;20029;-59
2022/08/18 01:00:06;;;;;;;44.90;38.30;;;;;;;18.19;100.00;101182.56;4995952;28;20026;-59
2022/08/18 01:02:36;;;;;;;44.65;37.78;;;;;;;18.14;100.00;101177.16;5014174;28;20018;-59
2022/08/18 01:05:07;;;;;;;42.38;37.03;;;;;;;18.16;100.00;101191.63;5013661;28;20159;-59
2022/08/18 01:07:38;;;;;;;42.80;36.80;;;;;;;18.14;100.00;101185.56;5013755;28;20432;-59
2022/08/18 01:10:04;;;;;;;42.28;35.53;;;;;;;18.14;100.00;101188.38;5013601;28;20366;-60
2022/08/18 01:12:31;;;;;;;40.72;34.95;;;;;;;18.15;100.00;101187.19;5013635;28;20075;-60
2022/08/18 01:14:57;;;;;;;44.10;36.08;;;;;;;18.19;100.00;101193.75;5013527;28;20030;-59
2022/08/18 01:23:03;;;;;;;40.83;34.92;;;;;;;18.13;100.00;101188.72;5013689;28;20142;-59
2022/08/18 01:28:16;;;;;;;40.42;35.75;;;;;;;18.01;100.00;101189.53;5013642;28;20044;-59
2022/08/18 01:30:49;;;;;;;43.58;35.45;;;;;;;18.01;100.00;101184.75;5013324;28;20034;-59
2022/08/18 01:33:16;;;;;;;42.13;36.28;;;;;;;17.97;100.00;101183.00;5013061;28;20022;-59
2022/08/18 01:35:47;;;;;;;42.17;36.08;;;;;;;17.96;100.00;101184.13;5012736;28;20072;-59
2022/08/18 01:38:12;;;;;;;41.13;35.88;;;;;;;17.92;100.00;101178.41;5013253;28;20025;-60
2022/08/18 01:40:37;;;;;;;40.67;34.55;;;;;;;17.93;100.00;101185.66;5012985;28;20022;-60
2022/08/18 01:43:03;;;;;;;43.22;36.65;;;;;;;17.91;100.00;101182.38;5013100;28;20037;-60
2022/08/18 01:45:32;;;;;;;43.83;37.63;;;;;;;17.84;100.00;101182.13;5012808;28;20121;-59
2022/08/18 01:47:58;;;;;;;44.30;36.45;;;;;;;17.88;100.00;101189.50;5012898;28;20104;-60
2022/08/18 01:50:24;;;;;;;41.53;36.55;;;;;;;17.90;100.00;101189.16;5012514;28;20112;-60
2022/08/18 01:52:52;;;;;;;41.67;35.50;;;;;;;17.91;100.00;101179.56;5012906;28;20035;-59
2022/08/18 01:55:19;;;;;;;45.00;37.60;;;;;;;17.86;100.00;101179.81;5012556;28;20046;-59
2022/08/18 01:57:44;;;;;;;43.13;35.25;;;;;;;17.86;100.00;101179.81;5012163;28;20022;-59
2022/08/18 02:00:13;;;;;;;45.15;37.60;;;;;;;17.75;100.00;101165.47;5012671;28;20034;-59
2022/08/18 02:02:40;;;;;;;42.42;36.70;;;;;;;17.74;100.00;101181.44;5012705;28;20100;-59
2022/08/18 02:05:15;;;;;;;44.67;38.13;;;;;;;17.59;100.00;101165.31;5012472;28;20469;-58
2022/08/18 02:07:40;;;;;;;46.05;38.63;;;;;;;17.62;100.00;101175.78;5012364;28;20112;-59
2022/08/18 02:10:09;;;;;;;45.70;39.03;;;;;;;17.55;100.00;101181.16;5012401;28;20061;-60
2022/08/18 02:12:34;;;;;;;51.35;40.35;;;;;;;17.53;100.00;101172.28;5012163;28;20100;-59
2022/08/18 02:15:00;;;;;;;49.30;41.92;;;;;;;17.46;100.00;101179.28;5012562;28;20447;-59
2022/08/18 02:17:25;;;;;;;48.83;42.70;;;;;;;17.44;100.00;101164.00;5012449;28;20022;-59
2022/08/18 02:19:50;;;;;;;52.33;43.65;;;;;;;17.41;100.00;101175.88;5012277;28;20030;-59
2022/08/18 02:22:19;;;;;;;51.80;42.60;;;;;;;17.39;100.00;101178.19;5012181;28;20034;-59
2022/08/18 02:24:45;;;;;;;53.10;45.72;;;;;;;17.35;100.00;101192.03;5012362;28;20033;-59
2022/08/18 02:27:12;;;;;;;54.28;45.92;;;;;;;17.31;100.00;101191.13;5012473;28;20024;-60
2022/08/18 02:29:38;;;;;;;54.13;44.80;;;;;;;17.25;100.00;101184.09;5012206;28;20029;-59
2022/08/18 02:32:04;;;;;;;54.17;44.88;;;;;;;17.22;100.00;101179.19;5012243;28;20041;-60
2022/08/18 02:34:29;;;;;;;55.88;47.63;;;;;;;17.17;100.00;101185.81;5012390;28;20038;-59
2022/08/18 02:36:55;;;;;;;54.92;46.67;;;;;;;17.13;100.00;101180.09;5012256;28;20021;-60
2022/08/18 02:39:20;;;;;;;55.22;45.53;;;;;;;17.10;100.00;101191.13;5011851;28;20312;-60
2022/08/18 02:41:46;;;;;;;53.25;46.33;;;;;;;17.10;100.00;101191.13;5011779;28;20450;-59
2022/08/18 02:44:11;;;;;;;55.03;45.60;;;;;;;17.08;100.00;101194.28;5011871;28;20147;-59
2022/08/18 02:46:37;;;;;;;54.88;45.58;;;;;;;17.07;100.00;101197.41;5011912;28;20109;-59
2022/08/18 02:49:04;;;;;;;54.67;44.88;;;;;;;16.99;100.00;101180.38;5011801;28;20030;-59
2022/08/18 02:51:30;;;;;;;52.70;44.88;;;;;;;17.04;100.00;101198.09;5012120;28;20056;-59
2022/08/18 02:53:58;;;;;;;53.05;44.38;;;;;;;17.01;100.00;101188.41;5011711;28;20021;-60
2022/08/18 02:56:28;;;;;;;53.15;44.45;;;;;;;16.98;100.00;101187.13;5011615;28;20026;-59
2022/08/18 02:58:56;;;;;;;55.97;43.75;;;;;;;16.96;100.00;101192.25;5011611;28;20164;-59
2022/08/18 03:01:24;;;;;;;52.35;43.88;;;;;;;16.99;100.00;101194.38;5011682;28;20108;-59
2022/08/18 03:03:50;;;;;;;55.15;44.40;;;;;;;16.95;100.00;101193.41;5011560;28;20030;-60
2022/08/18 03:06:17;;;;;;;55.72;44.95;;;;;;;16.94;100.00;101191.75;5011600;28;20022;-59
2022/08/18 03:08:47;;;;;;;50.95;43.78;;;;;;;16.93;100.00;101190.13;5010488;28;20053;-59
2022/08/18 03:11:13;;;;;;;50.38;43.42;;;;;;;16.90;100.00;101192.75;5011818;28;20019;-58
2022/08/18 03:13:38;;;;;;;53.70;42.67;;;;;;;16.84;100.00;101190.19;5011266;28;20029;-59
2022/08/18 03:16:04;;;;;;;52.50;42.40;;;;;;;16.85;100.00;101199.38;5011622;28;20046;-59
2022/08/18 03:18:29;;;;;;;48.53;41.65;;;;;;;16.81;100.00;101198.44;5011173;28;20431;-59
2022/08/18 03:21:00;;;;;;;50.85;42.33;;;;;;;16.77;100.00;101200.25;5011226;28;20041;-59
2022/08/18 03:23:26;;;;;;;49.10;42.40;;;;;;;16.77;100.00;101203.03;5011260;28;20161;-59
2022/08/18 03:25:52;;;;;;;50.40;42.63;;;;;;;16.77;100.00;101194.66;5011225;28;20038;-59
2022/08/18 03:28:17;;;;;;;50.45;42.50;;;;;;;16.75;100.00;101195.00;5011216;28;20143;-59
2022/08/18 03:30:42;;;;;;;50.30;41.63;;;;;;;16.72;100.00;101203.25;5011679;28;20052;-59
2022/08/18 03:33:08;;;;;;;49.78;42.20;;;;;;;16.72;100.00;101211.63;5011314;28;20026;-59
2022/08/18 03:35:35;;;;;;;50.65;41.88;;;;;;;16.69;100.00;101213.13;5011235;28;20435;-59
2022/08/18 03:38:01;;;;;;;53.53;43.35;;;;;;;16.68;100.00;101203.94;5010936;28;20038;-60
2022/08/18 03:40:27;;;;;;;52.58;42.88;;;;;;;16.65;100.00;101204.59;5011038;28;20040;-59
2022/08/18 03:42:52;;;;;;;47.03;39.47;;;;;;;16.67;100.00;101207.06;5011116;28;20026;-59
2022/08/18 03:45:18;;;;;;;55.55;42.63;;;;;;;16.69;100.00;101211.16;5010747;28;20030;-60
2022/08/18 03:47:44;;;;;;;53.83;42.10;;;;;;;16.74;100.00;101209.31;5009372;28;20029;-60
2022/08/18 03:50:10;;;;;;;52.30;42.50;;;;;;;16.79;100.00;101214.69;5011278;28;20101;-59
2022/08/18 03:52:37;;;;;;;48.60;40.75;;;;;;;16.84;100.00;101211.69;5011289;28;20034;-59
2022/08/18 03:55:03;;;;;;;50.45;41.67;;;;;;;16.87;100.00;101205.44;5011137;28;20030;-60
2022/08/18 03:57:32;;;;;;;51.42;41.90;;;;;;;16.90;100.00;101196.38;5011295;28;20505;-59
2022/08/18 03:59:58;;;;;;;52.95;42.78;;;;;;;16.94;100.00;101197.34;5011132;28;20037;-58
2022/08/18 04:02:23;;;;;;;53.15;43.08;;;;;;;16.97;100.00;101198.63;5011148;28;20046;-59
2022/08/18 04:04:48;;;;;;;50.05;41.22;;;;;;;17.03;100.00;101197.28;5011079;28;20076;-59
2022/08/18 04:07:16;;;;;;;52.60;42.08;;;;;;;17.06;100.00;101198.56;5010997;28;20080;-59
2022/08/18 04:09:42;;;;;;;48.22;40.72;;;;;;;17.14;100.00;101200.47;5011296;28;20113;-59
2022/08/18 04:12:12;;;;;;;50.88;43.13;;;;;;;17.17;100.00;101210.97;5011039;28;20453;-59
2022/08/18 04:14:40;;;;;;;52.30;44.00;;;;;;;17.14;100.00;101203.25;5010990;28;20053;-58
2022/08/18 04:17:07;;;;;;;54.13;43.95;;;;;;;17.16;100.00;101198.16;5010745;28;20033;-59
2022/08/18 04:19:33;;;;;;;53.75;44.65;;;;;;;17.12;100.00;101197.19;5011071;28;20034;-59
2022/08/18 04:22:00;;;;;;;58.55;46.20;;;;;;;17.11;100.00;101206.75;5014553;28;20049;-60
2022/08/18 04:24:27;;;;;;;52.28;44.08;;;;;;;17.08;100.00;101204.66;5014343;28;20415;-59
2022/08/18 04:26:54;;;;;;;54.47;44.95;;;;;;;17.10;100.00;101211.53;5013805;28;20422;-59
2022/08/18 04:29:20;;;;;;;50.72;42.92;;;;;;;17.13;100.00;101201.63;5014079;28;20044;-60
2022/08/18 04:31:46;;;;;;;51.28;42.97;;;;;;;17.14;100.00;101206.88;5014376;28;20026;-60
2022/08/18 04:34:12;;;;;;;50.03;42.05;;;;;;;17.17;100.00;101204.56;5014706;28;20109;-59
2022/08/18 04:36:38;;;;;;;49.53;40.75;;;;;;;17.16;100.00;101198.16;5014235;28;20057;-60
2022/08/18 04:39:06;;;;;;;53.38;42.80;;;;;;;17.16;100.00;101198.16;5014118;28;20033;-60
2022/08/18 04:41:32;;;;;;;49.53;40.17;;;;;;;17.19;100.00;101202.25;4996076;28;20331;-59
2022/08/18 04:44:00;;;;;;;52.63;44.00;;;;;;;17.11;100.00;101196.41;5013664;28;20087;-60
2022/08/18 04:46:26;;;;;;;49.72;42.17;;;;;;;17.17;100.00;101207.34;5013790;28;20117;-59
2022/08/18 04:48:57;;;;;;;50.20;42.45;;;;;;;17.13;100.00;101213.66;5014116;28;20041;-60
2022/08/18 04:51:22;;;;;;;53.08;42.97;;;;;;;17.11;100.00;101210.38;5013621;28;20478;-60
2022/08/18 04:53:48;;;;;;;55.38;44.05;;;;;;;17.10;100.00;101216.28;5014231;28;20109;-59
2022/08/18 04:56:26;;;;;;;52.47;44.20;;;;;;;17.06;100.00;101215.34;5014318;28;20029;-60
2022/08/18 04:58:57;;;;;;;52.10;43.58;;;;;;;17.07;100.00;101222.56;5014434;28;20022;-59
2022/08/18 05:01:26;;;;;;;52.50;43.60;;;;;;;17.01;100.00;101219.16;5014472;28;20081;-60
2022/08/18 05:03:53;;;;;;;51.20;42.13;;;;;;;17.03;100.00;101218.81;5014170;28;20137;-59
2022/08/18 05:06:24;;;;;;;53.50;43.60;;;;;;;16.94;100.00;101208.53;5013923;28;20154;-60
2022/08/18 05:08:52;;;;;;;53.67;42.80;;;;;;;17.00;100.00;101220.31;5013929;28;20045;-60
2022/08/18 05:11:17;;;;;;;57.00;43.30;;;;;;;16.94;100.00;101216.09;5014123;28;20050;-59
2022/08/18 05:13:43;;;;;;;52.63;42.92;;;;;;;16.96;100.00;101219.34;5013670;28;20034;-59
2022/08/18 05:16:08;;;;;;;52.05;41.63;;;;;;;17.00;100.00;101231.50;5013951;28;20034;-59
2022/08/18 05:18:39;;;;;;;53.13;43.10;;;;;;;16.97;100.00;101230.22;5013521;28;20049;-59
2022/08/18 05:21:05;;;;;;;52.30;43.55;;;;;;;16.95;100.00;101231.72;5013702;28;20037;-59
2022/08/18 05:23:31;;;;;;;53.13;43.10;;;;;;;16.97;100.00;101234.97;5013636;28;20481;-59
2022/08/18 05:25:58;;;;;;;58.53;45.80;;;;;;;16.93;100.00;101234.00;5013126;28;20070;-59
2022/08/18 05:28:23;;;;;;;55.78;45.50;;;;;;;16.93;100.00;101232.03;5013364;28;20030;-59
2022/08/18 05:30:49;;;;;;;54.72;45.00;;;;;;;16.94;100.00;101235.66;5013278;28;20022;-59
2022/08/18 05:33:14;;;;;;;58.00;46.38;;;;;;;16.92;100.00;101221.19;5012981;28;20040;-59
2022/08/18 05:35:48;;;;;;;57.97;43.83;;;;;;;16.93;100.00;101218.06;5013331;28;20041;-59
2022/08/18 05:38:28;;;;;;;51.60;41.53;;;;;;;17.08;100.00;101229.81;5012839;28;20109;-59
2022/08/18 05:41:08;;;;;;;54.42;43.10;;;;;;;17.11;100.00;101224.34;5012772;28;20026;-59
2022/08/18 05:43:36;;;;;;;51.20;40.92;;;;;;;17.25;100.00;101237.19;5013246;28;20041;-60
2022/08/18 05:46:04;;;;;;;50.67;40.60;;;;;;;17.34;100.00;101237.94;5012851;28;20465;-59
2022/08/18 05:48:31;;;;;;;46.55;38.80;;;;;;;17.43;100.00;101235.88;5013045;28;20423;-60
2022/08/18 05:50:57;;;;;;;47.00;39.60;;;;;;;17.49;100.00;101242.09;5013395;28;20590;-60
2022/08/18 05:56:45;;;;;;;48.65;38.90;;;;;;;17.57;100.00;101241.19;5012835;28;20100;-59
2022/08/18 05:58:56;;;;;;;45.13;37.83;;;;;;;17.62;100.00;101249.38;5013363;28;20052;-60
2022/08/18 06:01:28;;;;;;;47.42;38.50;;;;;;;17.61;100.00;101242.13;5012634;28;20034;-60
2022/08/18 06:04:01;;;;;;;44.75;37.22;;;;;;;17.55;100.00;101245.47;5013041;28;20045;-59
2022/08/18 06:06:30;;;;;;;47.20;36.92;;;;;;;17.56;100.00;101245.16;5012738;28;20053;-60
2022/08/18 06:09:04;;;;;;;45.50;36.67;;;;;;;17.62;100.00;101248.53;5012756;28;20414;-59
2022/08/18 06:11:29;;;;;;;45.58;38.72;;;;;;;17.66;100.00;101248.69;5012881;28;20026;-60
2022/08/18 06:13:55;;;;;;;46.50;36.65;;;;;;;17.69;100.00;101246.00;5012504;28;20022;-60
2022/08/18 06:16:37;;;;;;;45.45;37.65;;;;;;;17.77;100.00;101253.50;5012985;28;20477;-60
2022/08/18 06:19:20;;;;;;;43.33;34.90;;;;;;;17.91;100.00;101261.56;5012696;28;20044;-59
2022/08/18 06:22:06;;;;;;;43.83;34.45;;;;;;;17.99;100.00;101243.09;5012935;28;20045;-59
2022/08/18 06:24:52;;;;;;;39.55;31.77;;;;;;;18.05;100.00;101241.69;5011023;28;20468;-60
2022/08/18 06:27:33;;;;;;;40.85;33.88;;;;;;;18.11;100.00;101252.66;5012291;28;20034;-60
2022/08/18 06:30:09;;;;;;;38.05;31.13;;;;;;;18.18;100.00;101250.91;5012661;28;20068;-60
2022/08/18 06:32:55;;;;;;;38.20;29.95;;;;;;;18.28;100.00;101258.03;5012759;28;20030;-60
2022/08/18 06:35:35;;;;;;;40.38;32.45;;;;;;;18.40;100.00;101249.63;5012469;28;20030;-61
2022/08/18 06:38:38;;;;;;;35.90;28.95;;;;;;;18.50;100.00;101247.53;5012339;28;20103;-60
2022/08/18 06:41:10;;;;;;;39.07;31.50;;;;;;;18.61;100.00;101264.69;5012315;28;20532;-60
2022/08/18 06:43:49;;;;;;;37.47;30.02;;;;;;;18.47;100.00;101262.22;5012057;28;20029;-59
2022/08/18 06:46:27;;;;;;;39.38;31.98;;;;;;;18.57;100.00;101269.38;5012260;28;20053;-59
2022/08/18 06:48:55;;;;;;;40.78;31.83;;;;;;;18.63;100.00;101254.78;5011794;28;20147;-60
2022/08/18 06:51:25;;;;;;;38.25;30.75;;;;;;;18.80;100.00;101264.88;5012507;28;20080;-60
2022/08/18 06:54:25;;;;;;;38.63;32.33;;;;;;;18.83;100.00;101263.41;5012198;28;20053;-60
2022/08/18 06:56:52;;;;;;;37.53;30.42;;;;;;;19.12;100.00;101267.91;5011924;28;20470;-60
2022/08/18 06:59:25;;;;;;;37.10;30.08;;;;;;;19.23;100.00;101271.00;5011733;28;20030;-61
2022/08/18 07:02:00;;;;;;;37.20;30.63;;;;;;;19.31;100.00;101270.09;5011934;28;20076;-60
2022/08/18 07:04:38;;;;;;;34.30;28.08;;;;;;;19.34;100.00;101262.94;5011487;28;20559;-60
2022/08/18 07:07:19;;;;;;;32.50;25.35;;;;;;;19.30;98.19;101273.22;5011721;28;20026;-60
2022/08/18 07:09:46;;;;;;;32.45;26.00;;;;;;;19.33;98.71;101276.13;5011796;28;20075;-60
2022/08/18 07:12:21;;;;;;;31.63;25.17;;;;;;;19.27;98.65;101257.13;5011586;28;20528;-60
2022/08/18 07:14:49;;;;;;;34.92;27.75;;;;;;;19.35;99.12;101261.75;5011103;28;20475;-60
2022/08/18 07:17:32;;;;;;;29.02;22.98;;;;;;;19.49;97.21;101272.59;5011323;28;20030;-60
2022/08/18 07:20:15;;;;;;;29.02;23.55;;;;;;;19.52;97.21;101271.03;5011635;28;20033;-59
2022/08/18 07:22:59;;;;;;;31.75;25.83;;;;;;;19.54;96.92;101275.13;5011318;28;20033;-59
2022/08/18 07:25:27;;;;;;;;;;;;;;;19.67;98.49;101269.47;5011597;28;20323;-59
2022/08/18 07:27:55;;;;;;;31.02;23.92;;;;;;;19.69;94.93;101270.72;5011422;28;19917;-59
2022/08/18 07:30:20;;;;;;;29.67;24.95;;;;;;;19.85;94.52;101269.94;5011463;28;20030;-59
2022/08/18 07:32:52;;;;;;;31.60;24.97;;;;;;;20.01;93.99;101264.38;5011397;28;20029;-59
2022/08/18 07:35:26;;;;;;;30.92;24.67;;;;;;;20.20;93.00;101275.72;5011207;28;20452;-59
2022/08/18 07:38:04;;;;;;;30.00;24.23;;;;;;;20.32;93.17;101277.59;5011682;28;20026;-59
2022/08/18 07:40:43;;;;;;;28.50;24.05;;;;;;;20.41;91.56;101269.00;5011869;28;20034;-60
2022/08/18 07:43:16;;;;;;;28.67;24.23;;;;;;;20.52;90.47;101281.31;5011240;28;20346;-60
2022/08/18 07:45:44;;;;;;;28.50;22.48;;;;;;;20.63;89.97;101275.97;5011137;28;20026;-60
2022/08/18 07:48:23;;;;;;;29.13;23.75;;;;;;;20.65;90.47;101267.16;5011489;28;20026;-60
2022/08/18 07:51:13;;;;;;;28.77;22.58;;;;;;;20.84;90.49;101284.09;5011150;28;20128;-59
2022/08/18 07:54:20;;;;;;;29.95;22.77;;;;;;;20.76;89.09;101284.31;5011543;28;20034;-59
2022/08/18 07:57:07;;;;;;;26.50;21.67;;;;;;;20.72;89.19;101270.94;5013106;28;20046;-60
2022/08/18 07:59:52;;;;;;;27.48;20.92;;;;;;;20.77;88.55;101277.50;5015409;28;20105;-60
2022/08/18 08:02:34;;;;;;;28.10;22.95;;;;;;;20.75;87.68;101279.88;5014601;28;20034;-60
2022/08/18 08:05:23;;;;;;;32.47;25.15;;;;;;;20.63;89.19;101270.34;5014940;28;20037;-60
2022/08/18 08:08:00;;;;;;;31.42;23.48;;;;;;;20.51;89.42;101276.88;5014931;28;20148;-60
2022/08/18 08:10:50;;;;;;;28.88;24.52;;;;;;;20.46;88.73;101282.75;5014712;28;20030;-60
2022/08/18 08:13:27;;;;;;;28.10;23.10;;;;;;;20.47;88.22;101277.97;5014567;28;20304;-60
2022/08/18 08:16:07;;;;;;;27.52;22.83;;;;;;;20.48;88.63;101274.78;5015334;28;20026;-60
2022/08/18 08:18:39;;;;;;;27.33;21.33;;;;;;;20.65;86.70;101282.03;5014543;28;20108;-60
2022/08/18 08:21:11;;;;;;;27.40;20.23;;;;;;;20.73;85.42;101281.03;5013293;28;20033;-60
2022/08/18 08:24:10;;;;;;;26.75;19.77;;;;;;;20.74;86.73;101281.84;5014579;28;20581;-60
2022/08/18 08:27:01;;;;;;;27.63;22.48;;;;;;;20.60;86.06;101290.72;5014247;28;20045;-59
2022/08/18 08:29:34;;;;;;;26.77;21.77;;;;;;;20.58;85.73;101281.88;5014798;28;20463;-59
2022/08/18 08:32:01;;;;;;;26.38;20.85;;;;;;;20.84;85.00;101272.84;5014599;28;20458;-59
2022/08/18 08:34:44;;;;;;;27.02;21.10;;;;;;;21.11;83.88;101275.03;5014262;28;20038;-59
2022/08/18 08:37:14;;;;;;;26.77;20.60;;;;;;;21.44;81.94;101299.88;5014667;28;20480;-59
2022/08/18 08:39:56;;;;;;;27.40;19.90;;;;;;;21.53;81.47;101301.66;5014578;28;20030;-59
2022/08/18 08:42:44;;;;;;;25.52;19.42;;;;;;;21.48;81.90;101291.50;5013514;28;20449;-59
2022/08/18 08:45:18;;;;;;;25.45;18.88;;;;;;;21.41;81.02;101292.16;5014582;28;20041;-59
2022/08/18 08:48:10;;;;;;;25.90;18.70;;;;;;;21.47;82.30;101296.34;5013306;28;20129;-60
2022/08/18 08:50:58;;;;;;;26.80;21.05;;;;;;;21.36;82.19;101284.03;5014657;28;20038;-59
2022/08/18 08:53:29;;;;;;;28.13;20.63;;;;;;;21.29;80.41;101300.78;5014580;28;20443;-59
2022/08/18 08:55:57;;;;;;;25.83;20.75;;;;;;;21.30;81.38;101305.22;5014516;28;20029;-59
2022/08/18 08:58:32;;;;;;;25.90;19.95;;;;;;;21.54;81.14;101306.91;5013906;28;20091;-59
2022/08/18 09:00:58;;;;;;;26.33;21.15;;;;;;;21.64;79.61;101311.16;4996345;28;20035;-59
2022/08/18 09:03:47;;;;;;;26.38;19.00;;;;;;;21.72;79.85;101303.69;5012673;28;20026;-60
2022/08/18 09:06:29;;;;;;;26.27;18.67;;;;;;;21.76;78.57;101302.56;5013156;28;20080;-59
2022/08/18 09:09:45;;;;;;;27.45;18.73;;;;;;;21.75;79.66;101292.50;5013593;28;20351;-59
2022/08/18 09:12:55;;;;;;;25.92;19.73;;;;;;;21.66;78.71;101295.53;4953521;28;20170;-60
2022/08/18 09:15:44;;;;;;;24.17;17.17;;;;;;;21.63;80.40;101301.09;5014051;28;20033;-60
2022/08/18 09:18:21;;;;;;;24.13;16.98;;;;;;;21.67;78.94;101310.44;5013831;28;20113;-60
2022/08/18 09:21:04;;;;;;;22.88;16.05;;;;;;;21.74;78.54;101302.13;5013729;28;20033;-59
2022/08/18 09:23:34;;;;;;;22.38;16.52;;;;;;;21.91;77.36;101311.28;5013564;28;20038;-60
2022/08/18 09:26:22;;;;;;;23.02;17.30;;;;;;;21.97;77.30;101307.78;5013381;28;20080;-58
2022/08/18 09:28:58;;;;;;;25.08;18.02;;;;;;;21.90;77.38;101313.28;5013718;28;20034;-60
2022/08/18 09:31:25;;;;;;;23.30;17.52;;;;;;;21.90;76.58;101310.47;5013239;28;20116;-59
2022/08/18 09:34:10;;;;;;;23.33;17.42;;;;;;;21.93;78.03;101303.28;5013160;28;20482;-59
2022/08/18 09:36:53;;;;;;;23.70;17.23;;;;;;;22.13;78.53;101309.66;5013310;28;20072;-60
2022/08/18 09:42:30;;;;;;;23.15;17.33;;;;;;;22.20;76.53;101290.06;5013671;28;20088;-60
2022/08/18 09:45:00;;;;;;;21.92;16.13;;;;;;;22.16;75.59;101299.66;5013311;28;20037;-60
2022/08/18 09:47:26;;;;;;;23.70;15.73;;;;;;;22.19;74.05;101298.91;5013041;28;20106;-60
2022/08/18 09:49:56;;;;;;;23.33;15.73;;;;;;;22.24;73.03;101302.22;5012855;28;20050;-60
2022/08/18 09:52:21;;;;;;;22.95;15.18;;;;;;;22.25;73.15;101305.84;5013191;28;20182;-60
2022/08/18 09:54:52;;;;;;;22.20;15.60;;;;;;;22.19;72.95;101284.81;5013449;28;20108;-60
2022/08/18 09:57:21;;;;;;;22.73;15.73;;;;;;;22.26;75.17;101291.41;5013090;28;20640;-60
2022/08/18 09:59:49;;;;;;;22.55;15.20;;;;;;;22.42;74.49;101296.94;5013097;28;20057;-60
2022/08/18 10:02:30;;;;;;;21.92;15.50;;;;;;;22.60;74.85;101307.69;5012655;28;20371;-60
2022/08/18 10:05:14;;;;;;;21.25;15.50;;;;;;;22.82;74.25;101305.19;5012731;28;20443;-59
2022/08/18 10:07:42;;;;;;;23.38;15.82;;;;;;;23.00;71.78;101305.47;5012804;28;20396;-59
2022/08/18 10:10:30;;;;;;;22.30;15.52;;;;;;;23.08;70.01;101295.09;5012329;28;20030;-60
2022/08/18 10:13:14;;;;;;;22.23;15.93;;;;;;;23.14;69.12;101287.91;5013141;28;20064;-60
2022/08/18 10:16:17;;;;;;;22.15;15.98;;;;;;;23.28;67.66;101292.97;5012598;28;20125;-60
2022/08/18 10:19:09;;;;;;;22.40;15.80;;;;;;;23.13;69.73;101286.28;5012612;28;20152;-60
2022/08/18 10:21:54;;;;;;;22.20;16.02;;;;;;;23.28;70.42;101290.16;5012523;28;20519;-60
2022/08/18 10:24:21;;;;;;;22.30;16.48;;;;;;;23.34;69.19;101282.94;5013161;28;20100;-60
2022/08/18 10:26:49;;;;;;;23.40;17.60;;;;;;;23.34;68.53;101286.59;5012613;28;20457;-60
2022/08/18 10:29:24;;;;;;;23.52;17.73;;;;;;;23.37;68.82;101285.03;5012740;28;20092;-60
2022/08/18 10:31:55;;;;;;;22.63;17.58;;;;;;;23.38;68.12;101288.66;5012156;28;20088;-60
2022/08/18 10:34:38;;;;;;;23.23;17.75;;;;;;;23.16;67.09;101279.88;5012626;28;20175;-60
2022/08/18 10:37:26;;;;;;;22.40;17.95;;;;;;;23.11;67.38;101285.84;5012662;28;20038;-60
2022/08/18 10:39:56;;;;;;;23.25;18.77;;;;;;;23.03;66.86;101282.94;4994657;28;20095;-59
2022/08/18 10:42:28;;;;;;;22.65;17.60;;;;;;;23.05;67.75;101285.38;5010739;28;20030;-60
2022/08/18 10:45:06;;;;;;;24.55;19.13;;;;;;;23.03;68.18;101273.66;5012553;28;20092;-60
2022/08/18 10:47:32;;;;;;;23.40;18.70;;;;;;;23.18;67.81;101280.31;5012382;28;20026;-60
2022/08/18 10:50:02;;;;;;;24.20;19.50;;;;;;;23.40;66.98;101283.44;5011776;28;20120;-59
2022/08/18 10:52:58;;;;;;;23.73;18.73;;;;;;;23.82;67.99;101277.47;5012104;28;20034;-59
2022/08/18 10:55:35;;;;;;;23.55;18.30;;;;;;;24.34;64.05;101281.59;5012377;28;20092;-59
2022/08/18 10:58:22;;;;;;;22.73;18.27;;;;;;;24.53;62.00;101287.00;5012123;28;20037;-59
2022/08/18 11:01:02;;;;;;;23.33;18.75;;;;;;;24.73;61.71;101286.78;5011983;28;20032;-59
2022/08/18 11:03:51;;;;;;;22.80;18.33;;;;;;;24.86;60.77;101279.59;5012230;28;20084;-59
2022/08/18 11:06:22;;;;;;;22.70;18.75;;;;;;;24.81;60.52;101282.78;5011812;28;20041;-59
2022/08/18 11:08:58;;;;;;;24.20;18.85;;;;;;;24.70;61.05;101274.25;5012193;28;20029;-60
2022/08/18 11:11:32;;;;;;;21.98;17.27;;;;;;;24.87;59.78;101269.91;5012341;28;20105;-60
2022/08/18 11:14:13;;;;;;;21.83;17.08;;;;;;;24.88;56.28;101282.03;5011734;28;20026;-60
2022/08/18 11:16:48;;;;;;;20.77;15.85;;;;;;;24.96;56.39;101269.53;5012515;28;20092;-60
2022/08/18 11:19:15;;;;;;;21.60;16.48;;;;;;;24.77;57.56;101265.78;5011808;28;20053;-59
2022/08/18 11:21:43;;;;;;;22.20;16.48;;;;;;;24.62;59.81;101264.06;5011721;28;20454;-59
2022/08/18 11:24:15;;;;;;;22.25;17.83;;;;;;;24.56;59.44;101259.97;5011404;28;20026;-60
2022/08/18 11:26:47;;;;;;;23.40;18.20;;;;;;;24.51;59.67;101249.84;5011462;28;20072;-60
2022/08/18 11:29:33;;;;;;;22.55;18.00;;;;;;;24.76;60.46;101250.03;5011670;28;20100;-60
2022/08/18 11:32:15;;;;;;;24.08;18.02;;;;;;;24.84;58.35;101236.75;5015559;28;20481;-60
2022/08/18 11:34:44;;;;;;;23.13;18.70;;;;;;;24.88;58.36;101243.25;5015713;28;20026;-59
2022/08/18 11:37:31;;;;;;;23.23;17.95;;;;;;;24.90;59.98;101225.84;5015593;28;20114;-60
2022/08/18 11:39:58;;;;;;;25.52;19.45;;;;;;;24.99;57.07;101246.13;5015682;28;20049;-60
2022/08/18 11:42:29;;;;;;;23.50;18.13;;;;;;;25.13;56.90;101231.22;5015280;28;20030;-60
2022/08/18 11:45:05;;;;;;;22.83;16.90;;;;;;;25.30;58.23;101231.69;5015343;28;20153;-60